sensor_id;sensor_type;location;lat;lon;timestamp;P1;durP1;ratioP1;P2;durP2;ratioP2
71095;SDS011;58753;49.440;11.126;2023-04-06T00:00:22;3.73;;;1.20;;
71095;SDS011;58753;49.440;11.126;2023-04-06T00:02:48;7.90;;;2.00;;
71095;SDS011;58753;49.440;11.126;2023-04-06T00:05:14;4.57;;;1.80;;
71095;SDS011;58753;49.440;11.126;2023-04-06T00:07:40;5.00;;;2.40;;
71095;SDS011;58753;49.440;11.126;2023-04-06T00:10:05;3.87;;;2.60;;
71095;SDS011;58753;49.440;11.126;2023-04-06T00:12:31;3.38;;;1.73;;
71095;SDS011;58753;49.440;11.126;2023-04-06T00:14:57;7.85;;;2.05;;
71095;SDS011;58753;49.440;11.126;2023-04-06T00:17:22;4.97;;;1.97;;
71095;SDS011;58753;49.440;11.126;2023-04-06T00:19:48;3.53;;;1.87;;
71095;SDS011;58753;49.440;11.126;2023-04-06T00:22:13;4.33;;;1.60;;
71095;SDS011;58753;49.440;11.126;2023-04-06T00:24:38;5.63;;;1.90;;
71095;SDS011;58753;49.440;11.126;2023-04-06T00:27:04;4.47;;;2.17;;
71095;SDS011;58753;49.440;11.126;2023-04-06T00:29:30;6.00;;;1.75;;
71095;SDS011;58753;49.440;11.126;2023-04-06T00:31:55;4.53;;;2.13;;
71095;SDS011;58753;49.440;11.126;2023-04-06T00:34:20;3.70;;;2.10;;
71095;SDS011;58753;49.440;11.126;2023-04-06T00:36:46;7.03;;;1.70;;
71095;SDS011;58753;49.440;11.126;2023-04-06T00:39:11;4.07;;;1.90;;
71095;SDS011;58753;49.440;11.126;2023-04-06T00:41:37;5.17;;;2.20;;
71095;SDS011;58753;49.440;11.126;2023-04-06T00:44:04;9.32;;;2.25;;
71095;SDS011;58753;49.440;11.126;2023-04-06T00:46:29;5.43;;;1.90;;
71095;SDS011;58753;49.440;11.126;2023-04-06T00:48:55;5.13;;;2.00;;
71095;SDS011;58753;49.440;11.126;2023-04-06T00:51:22;4.20;;;1.90;;
71095;SDS011;58753;49.440;11.126;2023-04-06T00:53:47;4.25;;;2.38;;
71095;SDS011;58753;49.440;11.126;2023-04-06T00:56:13;4.23;;;2.47;;
71095;SDS011;58753;49.440;11.126;2023-04-06T00:58:38;5.27;;;2.27;;
71095;SDS011;58753;49.440;11.126;2023-04-06T01:01:05;3.43;;;2.17;;
71095;SDS011;58753;49.440;11.126;2023-04-06T01:03:31;4.15;;;1.95;;
71095;SDS011;58753;49.440;11.126;2023-04-06T01:05:56;3.57;;;1.70;;
71095;SDS011;58753;49.440;11.126;2023-04-06T01:08:23;3.95;;;1.90;;
71095;SDS011;58753;49.440;11.126;2023-04-06T01:10:49;3.88;;;1.70;;
71095;SDS011;58753;49.440;11.126;2023-04-06T01:13:15;4.80;;;2.00;;
71095;SDS011;58753;49.440;11.126;2023-04-06T01:15:40;3.95;;;2.10;;
71095;SDS011;58753;49.440;11.126;2023-04-06T01:18:10;5.90;;;2.00;;
71095;SDS011;58753;49.440;11.126;2023-04-06T01:20:35;6.75;;;2.15;;
71095;SDS011;58753;49.440;11.126;2023-04-06T01:23:01;6.57;;;2.20;;
71095;SDS011;58753;49.440;11.126;2023-04-06T01:25:27;5.37;;;2.13;;
71095;SDS011;58753;49.440;11.126;2023-04-06T01:27:52;6.22;;;1.60;;
71095;SDS011;58753;49.440;11.126;2023-04-06T01:30:17;4.03;;;2.10;;
71095;SDS011;58753;49.440;11.126;2023-04-06T01:32:43;6.90;;;2.17;;
71095;SDS011;58753;49.440;11.126;2023-04-06T01:35:09;4.15;;;2.17;;
71095;SDS011;58753;49.440;11.126;2023-04-06T01:37:35;6.57;;;2.08;;
71095;SDS011;58753;49.440;11.126;2023-04-06T01:40:02;5.93;;;2.42;;
71095;SDS011;58753;49.440;11.126;2023-04-06T01:42:27;4.80;;;2.07;;
71095;SDS011;58753;49.440;11.126;2023-04-06T01:44:53;7.40;;;2.55;;
71095;SDS011;58753;49.440;11.126;2023-04-06T01:47:18;6.27;;;2.43;;
71095;SDS011;58753;49.440;11.126;2023-04-06T01:49:44;5.10;;;2.67;;
71095;SDS011;58753;49.440;11.126;2023-04-06T01:52:09;3.57;;;2.13;;
71095;SDS011;58753;49.440;11.126;2023-04-06T01:54:34;5.25;;;2.38;;
71095;SDS011;58753;49.440;11.126;2023-04-06T01:57:00;4.37;;;2.37;;
71095;SDS011;58753;49.440;11.126;2023-04-06T01:59:25;4.17;;;2.37;;
71095;SDS011;58753;49.440;11.126;2023-04-06T02:01:51;6.40;;;2.63;;
71095;SDS011;58753;49.440;11.126;2023-04-06T02:04:16;6.23;;;2.03;;
71095;SDS011;58753;49.440;11.126;2023-04-06T02:06:41;5.57;;;1.88;;
71095;SDS011;58753;49.440;11.126;2023-04-06T02:09:07;5.00;;;2.13;;
71095;SDS011;58753;49.440;11.126;2023-04-06T02:11:32;6.87;;;2.80;;
71095;SDS011;58753;49.440;11.126;2023-04-06T02:13:58;5.50;;;2.60;;
71095;SDS011;58753;49.440;11.126;2023-04-06T02:16:25;5.70;;;2.30;;
71095;SDS011;58753;49.440;11.126;2023-04-06T02:18:51;5.63;;;2.53;;
71095;SDS011;58753;49.440;11.126;2023-04-06T02:21:16;4.75;;;2.55;;
71095;SDS011;58753;49.440;11.126;2023-04-06T02:23:45;5.37;;;2.33;;
71095;SDS011;58753;49.440;11.126;2023-04-06T02:26:12;6.03;;;2.45;;
71095;SDS011;58753;49.440;11.126;2023-04-06T02:28:37;6.60;;;2.78;;
71095;SDS011;58753;49.440;11.126;2023-04-06T02:31:03;4.70;;;2.50;;
71095;SDS011;58753;49.440;11.126;2023-04-06T02:33:28;4.93;;;2.60;;
71095;SDS011;58753;49.440;11.126;2023-04-06T02:35:54;8.02;;;2.63;;
71095;SDS011;58753;49.440;11.126;2023-04-06T02:38:20;7.33;;;2.37;;
71095;SDS011;58753;49.440;11.126;2023-04-06T02:40:45;4.90;;;2.63;;
71095;SDS011;58753;49.440;11.126;2023-04-06T02:43:10;7.07;;;3.05;;
71095;SDS011;58753;49.440;11.126;2023-04-06T02:45:36;6.47;;;3.43;;
71095;SDS011;58753;49.440;11.126;2023-04-06T02:48:01;5.77;;;2.83;;
71095;SDS011;58753;49.440;11.126;2023-04-06T02:50:26;6.57;;;3.07;;
71095;SDS011;58753;49.440;11.126;2023-04-06T02:52:52;5.57;;;2.83;;
71095;SDS011;58753;49.440;11.126;2023-04-06T02:55:18;6.30;;;3.57;;
71095;SDS011;58753;49.440;11.126;2023-04-06T02:57:44;5.35;;;3.08;;
71095;SDS011;58753;49.440;11.126;2023-04-06T03:00:10;7.65;;;3.03;;
71095;SDS011;58753;49.440;11.126;2023-04-06T03:02:36;8.17;;;3.10;;
71095;SDS011;58753;49.440;11.126;2023-04-06T03:05:02;5.70;;;2.85;;
71095;SDS011;58753;49.440;11.126;2023-04-06T03:07:28;8.20;;;3.27;;
71095;SDS011;58753;49.440;11.126;2023-04-06T03:09:53;5.00;;;3.00;;
71095;SDS011;58753;49.440;11.126;2023-04-06T03:12:19;9.83;;;3.20;;
71095;SDS011;58753;49.440;11.126;2023-04-06T03:14:45;6.57;;;3.00;;
71095;SDS011;58753;49.440;11.126;2023-04-06T03:17:10;6.10;;;3.40;;
71095;SDS011;58753;49.440;11.126;2023-04-06T03:19:36;5.90;;;2.93;;
71095;SDS011;58753;49.440;11.126;2023-04-06T03:22:01;6.07;;;2.85;;
71095;SDS011;58753;49.440;11.126;2023-04-06T03:24:27;5.80;;;2.87;;
71095;SDS011;58753;49.440;11.126;2023-04-06T03:26:52;6.97;;;2.73;;
71095;SDS011;58753;49.440;11.126;2023-04-06T03:29:17;5.23;;;2.90;;
71095;SDS011;58753;49.440;11.126;2023-04-06T03:31:43;6.83;;;3.03;;
71095;SDS011;58753;49.440;11.126;2023-04-06T03:34:08;4.82;;;2.90;;
71095;SDS011;58753;49.440;11.126;2023-04-06T03:36:34;5.33;;;2.63;;
71095;SDS011;58753;49.440;11.126;2023-04-06T03:39:00;8.38;;;3.33;;
71095;SDS011;58753;49.440;11.126;2023-04-06T03:41:25;4.60;;;3.00;;
71095;SDS011;58753;49.440;11.126;2023-04-06T03:43:51;6.45;;;2.88;;
71095;SDS011;58753;49.440;11.126;2023-04-06T03:46:16;6.53;;;2.87;;
71095;SDS011;58753;49.440;11.126;2023-04-06T03:48:42;7.87;;;3.13;;
71095;SDS011;58753;49.440;11.126;2023-04-06T03:51:07;7.93;;;2.93;;
71095;SDS011;58753;49.440;11.126;2023-04-06T03:53:33;8.20;;;2.77;;
71095;SDS011;58753;49.440;11.126;2023-04-06T03:55:58;9.35;;;2.45;;
71095;SDS011;58753;49.440;11.126;2023-04-06T03:58:23;10.37;;;2.83;;
71095;SDS011;58753;49.440;11.126;2023-04-06T04:00:49;4.83;;;2.50;;
71095;SDS011;58753;49.440;11.126;2023-04-06T04:03:14;6.67;;;2.80;;
71095;SDS011;58753;49.440;11.126;2023-04-06T04:05:40;6.33;;;2.73;;
71095;SDS011;58753;49.440;11.126;2023-04-06T04:08:05;6.43;;;2.63;;
71095;SDS011;58753;49.440;11.126;2023-04-06T04:10:31;7.43;;;3.00;;
71095;SDS011;58753;49.440;11.126;2023-04-06T04:12:56;6.70;;;2.63;;
71095;SDS011;58753;49.440;11.126;2023-04-06T04:15:21;8.32;;;2.90;;
71095;SDS011;58753;49.440;11.126;2023-04-06T04:17:47;9.67;;;2.70;;
71095;SDS011;58753;49.440;11.126;2023-04-06T04:20:14;5.18;;;2.47;;
71095;SDS011;58753;49.440;11.126;2023-04-06T04:22:40;7.97;;;2.88;;
71095;SDS011;58753;49.440;11.126;2023-04-06T04:25:06;5.80;;;2.50;;
71095;SDS011;58753;49.440;11.126;2023-04-06T04:27:31;5.13;;;2.23;;
71095;SDS011;58753;49.440;11.126;2023-04-06T04:29:57;4.30;;;2.60;;
71095;SDS011;58753;49.440;11.126;2023-04-06T04:32:22;5.15;;;2.80;;
71095;SDS011;58753;49.440;11.126;2023-04-06T04:34:47;6.67;;;2.70;;
71095;SDS011;58753;49.440;11.126;2023-04-06T04:37:13;5.77;;;2.50;;
71095;SDS011;58753;49.440;11.126;2023-04-06T04:39:38;6.63;;;2.40;;
71095;SDS011;58753;49.440;11.126;2023-04-06T04:42:04;5.78;;;2.50;;
71095;SDS011;58753;49.440;11.126;2023-04-06T04:44:30;6.78;;;3.20;;
71095;SDS011;58753;49.440;11.126;2023-04-06T04:46:55;5.77;;;2.80;;
71095;SDS011;58753;49.440;11.126;2023-04-06T04:49:21;6.80;;;2.63;;
71095;SDS011;58753;49.440;11.126;2023-04-06T04:51:47;6.23;;;2.77;;
71095;SDS011;58753;49.440;11.126;2023-04-06T04:54:12;6.93;;;3.00;;
71095;SDS011;58753;49.440;11.126;2023-04-06T04:56:38;6.83;;;2.67;;
71095;SDS011;58753;49.440;11.126;2023-04-06T04:59:03;6.70;;;2.95;;
71095;SDS011;58753;49.440;11.126;2023-04-06T05:01:28;6.33;;;2.80;;
71095;SDS011;58753;49.440;11.126;2023-04-06T05:03:54;9.10;;;3.37;;
71095;SDS011;58753;49.440;11.126;2023-04-06T05:06:19;5.10;;;2.80;;
71095;SDS011;58753;49.440;11.126;2023-04-06T05:08:45;6.45;;;2.75;;
71095;SDS011;58753;49.440;11.126;2023-04-06T05:11:10;8.60;;;3.17;;
71095;SDS011;58753;49.440;11.126;2023-04-06T05:13:36;6.73;;;3.40;;
71095;SDS011;58753;49.440;11.126;2023-04-06T05:16:01;7.25;;;2.75;;
71095;SDS011;58753;49.440;11.126;2023-04-06T05:18:27;8.50;;;3.73;;
71095;SDS011;58753;49.440;11.126;2023-04-06T05:20:52;10.00;;;2.90;;
71095;SDS011;58753;49.440;11.126;2023-04-06T05:23:18;7.75;;;2.85;;
71095;SDS011;58753;49.440;11.126;2023-04-06T05:25:43;7.20;;;3.10;;
71095;SDS011;58753;49.440;11.126;2023-04-06T05:28:09;8.33;;;3.30;;
71095;SDS011;58753;49.440;11.126;2023-04-06T05:30:35;9.63;;;3.10;;
71095;SDS011;58753;49.440;11.126;2023-04-06T05:33:00;10.67;;;3.30;;
71095;SDS011;58753;49.440;11.126;2023-04-06T05:35:26;5.25;;;3.25;;
71095;SDS011;58753;49.440;11.126;2023-04-06T05:37:51;5.90;;;3.23;;
71095;SDS011;58753;49.440;11.126;2023-04-06T05:40:17;8.03;;;3.20;;
71095;SDS011;58753;49.440;11.126;2023-04-06T05:42:42;7.47;;;2.75;;
71095;SDS011;58753;49.440;11.126;2023-04-06T05:45:09;7.93;;;2.90;;
71095;SDS011;58753;49.440;11.126;2023-04-06T05:47:44;4.55;;;2.50;;
71095;SDS011;58753;49.440;11.126;2023-04-06T05:50:10;6.45;;;3.35;;
71095;SDS011;58753;49.440;11.126;2023-04-06T05:52:36;6.57;;;3.20;;
71095;SDS011;58753;49.440;11.126;2023-04-06T05:55:02;5.10;;;2.83;;
71095;SDS011;58753;49.440;11.126;2023-04-06T05:57:28;7.83;;;2.50;;
71095;SDS011;58753;49.440;11.126;2023-04-06T05:59:53;6.70;;;2.65;;
71095;SDS011;58753;49.440;11.126;2023-04-06T06:02:20;11.27;;;4.50;;
71095;SDS011;58753;49.440;11.126;2023-04-06T06:04:46;10.90;;;4.73;;
71095;SDS011;58753;49.440;11.126;2023-04-06T06:07:11;5.83;;;3.83;;
71095;SDS011;58753;49.440;11.126;2023-04-06T06:09:36;8.05;;;3.40;;
71095;SDS011;58753;49.440;11.126;2023-04-06T06:12:02;6.43;;;3.03;;
71095;SDS011;58753;49.440;11.126;2023-04-06T06:14:27;9.37;;;4.03;;
71095;SDS011;58753;49.440;11.126;2023-04-06T06:16:56;7.68;;;2.95;;
71095;SDS011;58753;49.440;11.126;2023-04-06T06:19:21;6.67;;;3.27;;
71095;SDS011;58753;49.440;11.126;2023-04-06T06:21:47;12.00;;;3.23;;
71095;SDS011;58753;49.440;11.126;2023-04-06T06:24:12;8.50;;;3.60;;
71095;SDS011;58753;49.440;11.126;2023-04-06T06:26:37;8.17;;;3.67;;
71095;SDS011;58753;49.440;11.126;2023-04-06T06:29:04;8.85;;;3.90;;
71095;SDS011;58753;49.440;11.126;2023-04-06T06:31:30;9.30;;;4.13;;
71095;SDS011;58753;49.440;11.126;2023-04-06T06:33:56;8.80;;;4.30;;
71095;SDS011;58753;49.440;11.126;2023-04-06T06:36:21;11.25;;;5.50;;
71095;SDS011;58753;49.440;11.126;2023-04-06T06:38:47;10.13;;;5.03;;
71095;SDS011;58753;49.440;11.126;2023-04-06T06:41:12;9.10;;;3.90;;
71095;SDS011;58753;49.440;11.126;2023-04-06T06:43:38;6.83;;;3.87;;
71095;SDS011;58753;49.440;11.126;2023-04-06T06:46:03;6.32;;;3.58;;
71095;SDS011;58753;49.440;11.126;2023-04-06T06:48:29;8.07;;;3.60;;
71095;SDS011;58753;49.440;11.126;2023-04-06T06:50:55;7.55;;;3.00;;
71095;SDS011;58753;49.440;11.126;2023-04-06T06:53:21;6.78;;;3.25;;
71095;SDS011;58753;49.440;11.126;2023-04-06T06:55:48;9.35;;;3.08;;
71095;SDS011;58753;49.440;11.126;2023-04-06T06:58:17;10.80;;;3.30;;
71095;SDS011;58753;49.440;11.126;2023-04-06T07:00:44;8.70;;;3.63;;
71095;SDS011;58753;49.440;11.126;2023-04-06T07:03:10;9.25;;;3.00;;
71095;SDS011;58753;49.440;11.126;2023-04-06T07:05:35;8.33;;;3.47;;
71095;SDS011;58753;49.440;11.126;2023-04-06T07:08:00;7.77;;;3.13;;
71095;SDS011;58753;49.440;11.126;2023-04-06T07:10:26;7.43;;;3.13;;
71095;SDS011;58753;49.440;11.126;2023-04-06T07:12:52;9.17;;;3.50;;
71095;SDS011;58753;49.440;11.126;2023-04-06T07:15:18;13.10;;;3.50;;
71095;SDS011;58753;49.440;11.126;2023-04-06T07:17:43;14.10;;;4.40;;
71095;SDS011;58753;49.440;11.126;2023-04-06T07:20:12;9.40;;;4.53;;
71095;SDS011;58753;49.440;11.126;2023-04-06T07:22:38;9.43;;;4.28;;
71095;SDS011;58753;49.440;11.126;2023-04-06T07:25:04;11.63;;;3.57;;
71095;SDS011;58753;49.440;11.126;2023-04-06T07:27:30;11.10;;;5.93;;
71095;SDS011;58753;49.440;11.126;2023-04-06T07:29:56;8.57;;;4.13;;
71095;SDS011;58753;49.440;11.126;2023-04-06T07:32:21;7.47;;;3.90;;
71095;SDS011;58753;49.440;11.126;2023-04-06T07:34:46;11.30;;;3.63;;
71095;SDS011;58753;49.440;11.126;2023-04-06T07:37:12;10.37;;;4.40;;
71095;SDS011;58753;49.440;11.126;2023-04-06T07:39:37;7.90;;;4.17;;
71095;SDS011;58753;49.440;11.126;2023-04-06T07:42:03;11.38;;;3.92;;
71095;SDS011;58753;49.440;11.126;2023-04-06T07:44:28;7.40;;;3.60;;
71095;SDS011;58753;49.440;11.126;2023-04-06T07:46:54;8.07;;;4.00;;
71095;SDS011;58753;49.440;11.126;2023-04-06T07:49:19;12.88;;;4.00;;
71095;SDS011;58753;49.440;11.126;2023-04-06T07:51:45;10.18;;;3.75;;
71095;SDS011;58753;49.440;11.126;2023-04-06T07:54:11;9.20;;;3.50;;
71095;SDS011;58753;49.440;11.126;2023-04-06T07:56:36;8.83;;;3.43;;
71095;SDS011;58753;49.440;11.126;2023-04-06T07:59:02;11.23;;;3.80;;
71095;SDS011;58753;49.440;11.126;2023-04-06T08:01:28;11.37;;;4.23;;
71095;SDS011;58753;49.440;11.126;2023-04-06T08:03:54;8.02;;;3.85;;
71095;SDS011;58753;49.440;11.126;2023-04-06T08:06:20;12.13;;;4.30;;
71095;SDS011;58753;49.440;11.126;2023-04-06T08:08:46;10.43;;;4.43;;
71095;SDS011;58753;49.440;11.126;2023-04-06T08:11:11;8.27;;;3.87;;
71095;SDS011;58753;49.440;11.126;2023-04-06T08:13:36;7.47;;;3.60;;
71095;SDS011;58753;49.440;11.126;2023-04-06T08:16:02;8.67;;;3.87;;
71095;SDS011;58753;49.440;11.126;2023-04-06T08:18:27;8.07;;;4.15;;
71095;SDS011;58753;49.440;11.126;2023-04-06T08:20:54;7.57;;;3.50;;
71095;SDS011;58753;49.440;11.126;2023-04-06T08:23:20;9.15;;;3.83;;
71095;SDS011;58753;49.440;11.126;2023-04-06T08:25:46;8.63;;;4.20;;
71095;SDS011;58753;49.440;11.126;2023-04-06T08:28:11;9.17;;;4.27;;
71095;SDS011;58753;49.440;11.126;2023-04-06T08:30:39;9.87;;;4.30;;
71095;SDS011;58753;49.440;11.126;2023-04-06T08:33:05;7.70;;;4.45;;
71095;SDS011;58753;49.440;11.126;2023-04-06T08:35:31;9.33;;;3.63;;
71095;SDS011;58753;49.440;11.126;2023-04-06T08:37:56;10.93;;;3.70;;
71095;SDS011;58753;49.440;11.126;2023-04-06T08:40:22;10.33;;;3.60;;
71095;SDS011;58753;49.440;11.126;2023-04-06T08:42:50;5.13;;;2.38;;
71095;SDS011;58753;49.440;11.126;2023-04-06T08:45:19;9.20;;;4.10;;
71095;SDS011;58753;49.440;11.126;2023-04-06T08:47:46;8.27;;;3.88;;
71095;SDS011;58753;49.440;11.126;2023-04-06T08:50:19;7.93;;;3.88;;
71095;SDS011;58753;49.440;11.126;2023-04-06T08:52:49;9.10;;;4.50;;
71095;SDS011;58753;49.440;11.126;2023-04-06T08:55:15;10.45;;;3.65;;
71095;SDS011;58753;49.440;11.126;2023-04-06T08:57:41;7.60;;;3.37;;
71095;SDS011;58753;49.440;11.126;2023-04-06T09:00:07;9.85;;;4.93;;
71095;SDS011;58753;49.440;11.126;2023-04-06T09:02:38;8.18;;;3.65;;
71095;SDS011;58753;49.440;11.126;2023-04-06T09:05:06;8.15;;;3.63;;
71095;SDS011;58753;49.440;11.126;2023-04-06T09:07:33;7.05;;;3.85;;
71095;SDS011;58753;49.440;11.126;2023-04-06T09:09:58;5.60;;;2.90;;
71095;SDS011;58753;49.440;11.126;2023-04-06T09:12:24;5.53;;;3.37;;
71095;SDS011;58753;49.440;11.126;2023-04-06T09:14:54;8.43;;;3.60;;
71095;SDS011;58753;49.440;11.126;2023-04-06T09:17:27;6.35;;;3.30;;
71095;SDS011;58753;49.440;11.126;2023-04-06T09:19:55;8.75;;;4.18;;
71095;SDS011;58753;49.440;11.126;2023-04-06T09:22:21;9.43;;;3.90;;
71095;SDS011;58753;49.440;11.126;2023-04-06T09:24:50;9.35;;;3.97;;
71095;SDS011;58753;49.440;11.126;2023-04-06T09:27:17;9.25;;;4.53;;
71095;SDS011;58753;49.440;11.126;2023-04-06T09:30:01;7.47;;;4.03;;
71095;SDS011;58753;49.440;11.126;2023-04-06T09:32:28;8.93;;;4.15;;
71095;SDS011;58753;49.440;11.126;2023-04-06T09:34:54;7.13;;;5.00;;
71095;SDS011;58753;49.440;11.126;2023-04-06T09:37:30;7.28;;;3.80;;
71095;SDS011;58753;49.440;11.126;2023-04-06T09:40:01;9.13;;;4.70;;
71095;SDS011;58753;49.440;11.126;2023-04-06T09:42:28;9.45;;;4.88;;
71095;SDS011;58753;49.440;11.126;2023-04-06T09:44:54;8.90;;;4.40;;
71095;SDS011;58753;49.440;11.126;2023-04-06T09:47:19;9.07;;;4.80;;
71095;SDS011;58753;49.440;11.126;2023-04-06T09:49:48;9.47;;;4.83;;
71095;SDS011;58753;49.440;11.126;2023-04-06T09:52:15;10.50;;;4.65;;
71095;SDS011;58753;49.440;11.126;2023-04-06T09:54:42;8.95;;;4.55;;
71095;SDS011;58753;49.440;11.126;2023-04-06T09:57:29;12.65;;;4.85;;
71095;SDS011;58753;49.440;11.126;2023-04-06T10:00:08;8.48;;;5.07;;
71095;SDS011;58753;49.440;11.126;2023-04-06T10:05:19;10.95;;;4.93;;
71095;SDS011;58753;49.440;11.126;2023-04-06T10:07:45;12.60;;;6.13;;
71095;SDS011;58753;49.440;11.126;2023-04-06T10:10:13;9.43;;;5.90;;
71095;SDS011;58753;49.440;11.126;2023-04-06T10:12:39;11.95;;;6.40;;
71095;SDS011;58753;49.440;11.126;2023-04-06T10:15:07;8.83;;;5.30;;
71095;SDS011;58753;49.440;11.126;2023-04-06T10:17:33;11.13;;;5.93;;
71095;SDS011;58753;49.440;11.126;2023-04-06T10:20:07;9.40;;;5.17;;
71095;SDS011;58753;49.440;11.126;2023-04-06T10:25:09;10.80;;;5.28;;
71095;SDS011;58753;49.440;11.126;2023-04-06T10:27:34;7.50;;;4.50;;
71095;SDS011;58753;49.440;11.126;2023-04-06T10:30:04;9.18;;;4.88;;
71095;SDS011;58753;49.440;11.126;2023-04-06T10:35:07;7.27;;;4.10;;
71095;SDS011;58753;49.440;11.126;2023-04-06T10:37:50;9.52;;;4.22;;
71095;SDS011;58753;49.440;11.126;2023-04-06T10:40:25;8.68;;;4.32;;
71095;SDS011;58753;49.440;11.126;2023-04-06T10:42:52;8.20;;;4.68;;
71095;SDS011;58753;49.440;11.126;2023-04-06T10:45:20;6.82;;;4.45;;
71095;SDS011;58753;49.440;11.126;2023-04-06T10:47:46;8.17;;;4.47;;
71095;SDS011;58753;49.440;11.126;2023-04-06T10:50:13;10.43;;;5.07;;
71095;SDS011;58753;49.440;11.126;2023-04-06T10:52:41;8.07;;;5.65;;
71095;SDS011;58753;49.440;11.126;2023-04-06T10:55:08;10.70;;;5.37;;
71095;SDS011;58753;49.440;11.126;2023-04-06T10:57:35;9.18;;;4.43;;
71095;SDS011;58753;49.440;11.126;2023-04-06T11:00:03;9.38;;;5.20;;
71095;SDS011;58753;49.440;11.126;2023-04-06T11:02:30;10.20;;;5.03;;
71095;SDS011;58753;49.440;11.126;2023-04-06T11:04:56;7.72;;;4.55;;
71095;SDS011;58753;49.440;11.126;2023-04-06T11:07:26;7.22;;;4.57;;
71095;SDS011;58753;49.440;11.126;2023-04-06T11:09:52;8.65;;;4.88;;
71095;SDS011;58753;49.440;11.126;2023-04-06T11:12:24;8.80;;;4.87;;
71095;SDS011;58753;49.440;11.126;2023-04-06T11:14:52;7.97;;;5.07;;
71095;SDS011;58753;49.440;11.126;2023-04-06T11:17:25;8.60;;;4.80;;
71095;SDS011;58753;49.440;11.126;2023-04-06T11:19:51;9.68;;;4.93;;
71095;SDS011;58753;49.440;11.126;2023-04-06T11:22:16;7.83;;;5.20;;
71095;SDS011;58753;49.440;11.126;2023-04-06T11:24:42;9.77;;;5.60;;
71095;SDS011;58753;49.440;11.126;2023-04-06T11:27:07;8.55;;;5.47;;
71095;SDS011;58753;49.440;11.126;2023-04-06T11:29:33;8.63;;;5.20;;
71095;SDS011;58753;49.440;11.126;2023-04-06T11:34:32;8.52;;;5.40;;
71095;SDS011;58753;49.440;11.126;2023-04-06T11:37:01;8.75;;;5.43;;
71095;SDS011;58753;49.440;11.126;2023-04-06T11:39:29;8.77;;;5.40;;
71095;SDS011;58753;49.440;11.126;2023-04-06T11:41:59;9.03;;;6.00;;
71095;SDS011;58753;49.440;11.126;2023-04-06T11:47:05;8.77;;;5.10;;
71095;SDS011;58753;49.440;11.126;2023-04-06T11:49:36;8.65;;;5.47;;
71095;SDS011;58753;49.440;11.126;2023-04-06T11:52:03;7.28;;;5.25;;
71095;SDS011;58753;49.440;11.126;2023-04-06T11:54:40;10.95;;;4.75;;
71095;SDS011;58753;49.440;11.126;2023-04-06T11:57:07;7.47;;;5.53;;
71095;SDS011;58753;49.440;11.126;2023-04-06T11:59:33;6.13;;;4.38;;
71095;SDS011;58753;49.440;11.126;2023-04-06T12:02:00;8.95;;;5.07;;
71095;SDS011;58753;49.440;11.126;2023-04-06T12:04:26;7.22;;;4.60;;
71095;SDS011;58753;49.440;11.126;2023-04-06T12:06:52;9.50;;;5.20;;
71095;SDS011;58753;49.440;11.126;2023-04-06T12:09:17;6.30;;;4.53;;
71095;SDS011;58753;49.440;11.126;2023-04-06T12:11:43;6.23;;;4.93;;
71095;SDS011;58753;49.440;11.126;2023-04-06T12:14:08;7.05;;;4.32;;
71095;SDS011;58753;49.440;11.126;2023-04-06T12:16:34;6.37;;;4.20;;
71095;SDS011;58753;49.440;11.126;2023-04-06T12:19:00;6.25;;;4.30;;
71095;SDS011;58753;49.440;11.126;2023-04-06T12:21:27;8.70;;;5.10;;
71095;SDS011;58753;49.440;11.126;2023-04-06T12:23:53;8.70;;;4.57;;
71095;SDS011;58753;49.440;11.126;2023-04-06T12:26:19;7.05;;;4.57;;
71095;SDS011;58753;49.440;11.126;2023-04-06T12:28:45;7.22;;;4.95;;
71095;SDS011;58753;49.440;11.126;2023-04-06T12:31:20;7.70;;;4.70;;
71095;SDS011;58753;49.440;11.126;2023-04-06T12:33:47;8.10;;;4.65;;
71095;SDS011;58753;49.440;11.126;2023-04-06T12:36:19;8.50;;;4.77;;
71095;SDS011;58753;49.440;11.126;2023-04-06T12:38:49;6.97;;;5.33;;
71095;SDS011;58753;49.440;11.126;2023-04-06T12:41:16;7.60;;;4.93;;
71095;SDS011;58753;49.440;11.126;2023-04-06T12:43:42;11.15;;;4.97;;
71095;SDS011;58753;49.440;11.126;2023-04-06T12:46:08;6.63;;;4.90;;
71095;SDS011;58753;49.440;11.126;2023-04-06T12:48:34;10.60;;;6.13;;
71095;SDS011;58753;49.440;11.126;2023-04-06T12:51:01;7.90;;;5.50;;
71095;SDS011;58753;49.440;11.126;2023-04-06T12:53:28;7.88;;;5.32;;
71095;SDS011;58753;49.440;11.126;2023-04-06T12:55:53;7.90;;;4.97;;
71095;SDS011;58753;49.440;11.126;2023-04-06T12:58:20;9.38;;;4.70;;
71095;SDS011;58753;49.440;11.126;2023-04-06T13:00:47;7.90;;;4.78;;
71095;SDS011;58753;49.440;11.126;2023-04-06T13:03:13;7.63;;;5.32;;
71095;SDS011;58753;49.440;11.126;2023-04-06T13:05:45;6.83;;;5.30;;
71095;SDS011;58753;49.440;11.126;2023-04-06T13:08:14;7.88;;;5.00;;
71095;SDS011;58753;49.440;11.126;2023-04-06T13:10:50;7.45;;;4.07;;
71095;SDS011;58753;49.440;11.126;2023-04-06T13:13:26;8.15;;;4.90;;
71095;SDS011;58753;49.440;11.126;2023-04-06T13:15:58;7.43;;;4.72;;
71095;SDS011;58753;49.440;11.126;2023-04-06T13:18:28;6.60;;;4.25;;
71095;SDS011;58753;49.440;11.126;2023-04-06T13:20:55;13.53;;;4.60;;
71095;SDS011;58753;49.440;11.126;2023-04-06T13:23:21;7.33;;;4.93;;
71095;SDS011;58753;49.440;11.126;2023-04-06T13:26:00;8.65;;;4.85;;
71095;SDS011;58753;49.440;11.126;2023-04-06T13:28:29;6.68;;;4.95;;
71095;SDS011;58753;49.440;11.126;2023-04-06T13:30:57;6.72;;;4.65;;
71095;SDS011;58753;49.440;11.126;2023-04-06T13:33:23;8.10;;;4.30;;
71095;SDS011;58753;49.440;11.126;2023-04-06T13:35:48;6.37;;;3.80;;
71095;SDS011;58753;49.440;11.126;2023-04-06T13:38:14;6.53;;;4.40;;
71095;SDS011;58753;49.440;11.126;2023-04-06T13:40:41;6.97;;;5.03;;
71095;SDS011;58753;49.440;11.126;2023-04-06T13:43:07;7.00;;;4.65;;
71095;SDS011;58753;49.440;11.126;2023-04-06T13:45:33;6.70;;;4.97;;
71095;SDS011;58753;49.440;11.126;2023-04-06T13:47:58;8.97;;;5.50;;
71095;SDS011;58753;49.440;11.126;2023-04-06T13:50:27;8.53;;;5.93;;
71095;SDS011;58753;49.440;11.126;2023-04-06T13:52:53;8.70;;;5.57;;
71095;SDS011;58753;49.440;11.126;2023-04-06T13:55:18;8.03;;;5.40;;
71095;SDS011;58753;49.440;11.126;2023-04-06T13:57:44;8.00;;;5.60;;
71095;SDS011;58753;49.440;11.126;2023-04-06T14:00:10;9.80;;;4.80;;
71095;SDS011;58753;49.440;11.126;2023-04-06T14:02:37;7.22;;;4.85;;
71095;SDS011;58753;49.440;11.126;2023-04-06T14:05:04;7.45;;;5.38;;
71095;SDS011;58753;49.440;11.126;2023-04-06T14:07:30;7.63;;;4.43;;
71095;SDS011;58753;49.440;11.126;2023-04-06T14:09:55;8.37;;;4.97;;
71095;SDS011;58753;49.440;11.126;2023-04-06T14:12:21;10.53;;;5.70;;
71095;SDS011;58753;49.440;11.126;2023-04-06T14:14:46;7.90;;;5.10;;
71095;SDS011;58753;49.440;11.126;2023-04-06T14:17:12;13.68;;;5.70;;
71095;SDS011;58753;49.440;11.126;2023-04-06T14:19:37;6.57;;;4.00;;
71095;SDS011;58753;49.440;11.126;2023-04-06T14:22:03;7.97;;;4.75;;
71095;SDS011;58753;49.440;11.126;2023-04-06T14:24:29;8.15;;;5.10;;
71095;SDS011;58753;49.440;11.126;2023-04-06T14:26:55;8.93;;;4.90;;
71095;SDS011;58753;49.440;11.126;2023-04-06T14:29:21;6.45;;;4.63;;
71095;SDS011;58753;49.440;11.126;2023-04-06T14:31:47;7.53;;;4.63;;
71095;SDS011;58753;49.440;11.126;2023-04-06T14:34:13;8.25;;;4.50;;
71095;SDS011;58753;49.440;11.126;2023-04-06T14:36:38;8.53;;;5.33;;
71095;SDS011;58753;49.440;11.126;2023-04-06T14:39:04;6.55;;;4.15;;
71095;SDS011;58753;49.440;11.126;2023-04-06T14:41:31;6.80;;;4.03;;